Manti, Utah
Current Conditions -  °F | °C
As of 10:55 AM on Sunday 21 Dec 2014 (Local Time) from KDTA Reporting Station
Overcast Overcast  
Wind Chill:   Ceiling: 5500
Heat Index:   Visibility: 10mi
Dew Point:   Wind: 8mph
Humidity: 71%   Direction: 180°S
Pressure: 30.06"   Gusts: NA
Location:  39.27°N, 111.64°W
Report Text: KDTA 211755Z AUTO 18007KT 10SM OVC055 05/00 A3006 RMK AO1 T00520003 10078 21056
Loading
Personal Weather Stations






























Interactive Weather Map New forecast layout! Learn more

10-Day Weather Forecast

Advertisements
Track Severe Weather on mobile